Pagina principale
METAR-TAF:

METAR-TAF

Aeroporti :

Yap, Micronesia

Aeroporto Internazionale di Yap

latitudine: 09-29N, longitudine: 138-05E, altezza: 28 m

Osservazione

Il bollettino è stato emesso 45 minuti fa, alle 16:51 UTC
Vento 3 kt da direzioni variabili
Temperature 27°C
Umidità 84%
Pressione 1009 hPa
Visibilità: 19.3 km
Poco nuvoloso ad un'altezza di 1600 ft
Nuvoloso ad un'altezza di 30000 ft

METAR: PTYA 191651Z VRB03KT 12SM FEW016 BKN300 27/24 A2980 RMK SLP093 T02660237

Ora: 03:36 (17:36 UTC)

Previsione

Il bollettino è stato emesso 6 minuti fa, alle 17:30 UTC
Previsione valida dal 19 alle 18 UTC al 20 alle 18 UTC
Vento 7 kt da est/nord-est
Visibilità: 10 km
Nubi sparse ad un'altezza di 1800 ft
Nubi sparse ad un'altezza di 4000 ft

TAF: PTYA 191730Z 1918/2018 07007KT P6SM SCT018 SCT040

Osservazioni e previsioni meteorologiche di più di 4000 aeroporti (messaggi METAR e TAF).

Le stazioni disponibili sono rappresentate dai dischi gialli e rossi sulla carta.

Puntare il mouse per vedere il nome della stazione.

Clicca sopra per visualizzare le osservazioni e previsioni meteorologiche.

Per cambiare la mappa : fare clic sui pulsanti verdi con una croce nera per ingrandire, il pulsante verde con un trattino per diminuire, o sulla freccia verde per le mappe adiacenti.


METAR-TAF: